Time;durP1;ratioP1;P1;durP2;ratioP2;P2;SDS_P1;SDS_P2;PMS_P1;PMS_P2;Temp;Humidity;BMP_temperature;BMP_pressure;BME280_temperature;BME280_humidity;BME280_pressure;Samples;Min_cycle;Max_cycle;Signal;HPM_P1;HPM_P2
2022/10/21 00:02:14;;;;;;;2.75;2.45;;;;;;;19.30;54.56;100784.63;5143088;28;20015;-61
2022/10/21 00:04:40;;;;;;;3.45;3.03;;;;;;;19.30;54.34;100780.06;5144108;28;20118;-61
2022/10/21 00:07:05;;;;;;;3.40;3.10;;;;;;;19.31;54.64;100770.13;5144362;28;20027;-61
2022/10/21 00:09:30;;;;;;;2.95;2.63;;;;;;;19.31;54.54;100775.50;5144068;28;20023;-61
2022/10/21 00:11:55;;;;;;;3.45;2.67;;;;;;;19.27;54.69;100758.00;5127071;28;20031;-61
2022/10/21 00:14:20;;;;;;;2.80;2.40;;;;;;;19.28;54.54;100765.91;5137574;28;20050;-61
2022/10/21 00:16:46;;;;;;;3.45;3.15;;;;;;;19.29;54.54;100764.06;5131870;28;20040;-61
2022/10/21 00:19:11;;;;;;;3.95;3.35;;;;;;;19.30;54.49;100758.50;5123825;28;20062;-61
2022/10/21 00:21:36;;;;;;;3.53;2.75;;;;;;;19.29;54.88;100747.91;5122903;28;20077;-61
2022/10/21 00:24:02;;;;;;;2.97;2.58;;;;;;;19.27;54.46;100749.91;5124621;28;20118;-61
2022/10/21 00:26:27;;;;;;;3.17;2.65;;;;;;;19.28;54.54;100738.09;5123339;28;20460;-61
2022/10/21 00:28:56;;;;;;;2.53;2.30;;;;;;;19.28;54.67;100746.19;5123608;28;20084;-61
2022/10/21 00:31:21;;;;;;;3.10;2.45;;;;;;;19.18;54.73;100725.69;5123123;28;20030;-60
2022/10/21 00:33:47;;;;;;;2.60;2.40;;;;;;;19.27;54.52;100739.97;5125001;28;20099;-60
2022/10/21 00:36:13;;;;;;;3.53;2.90;;;;;;;19.27;54.54;100734.56;5126739;28;20023;-61
2022/10/21 00:38:40;;;;;;;3.38;2.97;;;;;;;19.26;54.48;100738.28;5127559;28;20031;-61
2022/10/21 00:41:05;;;;;;;3.15;2.78;;;;;;;19.26;54.28;100727.50;5126701;28;20106;-61
2022/10/21 00:43:30;;;;;;;3.85;3.40;;;;;;;19.26;54.71;100730.19;5127415;28;20023;-61
2022/10/21 00:46:02;;;;;;;2.67;2.47;;;;;;;19.25;54.75;100736.63;5127198;28;20034;-61
2022/10/21 00:48:37;;;;;;;2.75;2.55;;;;;;;19.25;54.40;100731.22;5127244;28;20031;-61
2022/10/21 00:51:06;;;;;;;3.13;2.65;;;;;;;19.25;54.79;100733.09;5125071;28;20023;-61
2022/10/21 00:53:33;;;;;;;3.60;3.13;;;;;;;19.24;54.77;100734.91;5126125;27;20607;-61
2022/10/21 00:56:03;;;;;;;3.47;2.88;;;;;;;19.22;54.55;100731.56;5126793;28;20078;-61
2022/10/21 00:58:29;;;;;;;2.92;2.60;;;;;;;19.23;54.63;100733.25;5126737;28;20046;-61
2022/10/21 01:00:55;;;;;;;3.33;2.75;;;;;;;19.23;54.56;100744.03;5127518;27;20038;-60
2022/10/21 01:03:23;;;;;;;3.80;3.33;;;;;;;19.23;54.80;100746.72;5127185;28;20043;-61
2022/10/21 01:05:48;;;;;;;2.60;2.38;;;;;;;19.23;54.88;100746.72;5131374;27;20023;-61
2022/10/21 01:08:14;;;;;;;3.10;2.80;;;;;;;19.22;54.58;100753.97;5126807;28;20609;-61
2022/10/21 01:10:39;;;;;;;4.10;2.75;;;;;;;19.22;54.65;100766.59;5126204;28;20639;-61
2022/10/21 01:13:17;;;;;;;3.00;2.70;;;;;;;19.22;54.75;100763.91;5129252;27;20034;-61
2022/10/21 01:16:04;;;;;;;3.22;2.70;;;;;;;19.21;54.56;100768.47;5128747;27;20111;-61
2022/10/21 01:18:37;;;;;;;2.83;2.53;;;;;;;19.21;54.62;100763.06;5147486;27;20106;-61
2022/10/21 01:21:30;;;;;;;2.78;2.58;;;;;;;19.20;54.63;100756.00;5146380;27;20052;-60
2022/10/21 01:24:23;;;;;;;2.78;2.42;;;;;;;19.20;54.72;100742.53;5133904;27;20032;-60
2022/10/21 01:27:07;;;;;;;2.65;2.45;;;;;;;19.19;54.45;100754.31;5125117;28;20051;-60
2022/10/21 01:29:58;;;;;;;3.22;2.70;;;;;;;19.19;54.77;100740.00;5126412;28;20023;-60
2022/10/21 01:32:42;;;;;;;2.90;2.60;;;;;;;19.18;54.72;100749.09;5124979;28;20057;-59
2022/10/21 01:35:19;;;;;;;3.80;3.05;;;;;;;19.18;54.52;100747.25;5124518;28;20029;-59
2022/10/21 01:38:10;;;;;;;3.03;2.72;;;;;;;19.18;54.79;100749.94;5126066;28;20364;-60
2022/10/21 01:41:04;;;;;;;2.67;2.45;;;;;;;19.16;54.53;100741.19;5125573;28;20027;-58
2022/10/21 01:43:39;;;;;;;3.13;2.55;;;;;;;19.17;54.52;100736.66;5114989;28;20062;-60
2022/10/21 01:46:11;;;;;;;4.82;2.95;;;;;;;19.16;54.38;100737.66;5125098;28;20098;-60
2022/10/21 01:48:42;;;;;;;2.80;2.47;;;;;;;19.16;54.50;100733.13;5124970;28;20091;-60
2022/10/21 01:51:08;;;;;;;3.80;2.92;;;;;;;19.13;54.69;100725.38;5123886;28;20019;-60
2022/10/21 01:53:41;;;;;;;3.08;2.72;;;;;;;19.17;54.75;100728.56;5107753;28;20035;-61
2022/10/21 01:56:08;;;;;;;2.65;2.45;;;;;;;19.15;54.60;100728.72;5125730;28;20028;-60
2022/10/21 01:58:34;;;;;;;2.83;2.10;;;;;;;19.07;54.54;100707.19;5125537;28;20071;-60
2022/10/21 02:01:02;;;;;;;2.90;2.65;;;;;;;19.15;54.82;100725.19;5124143;28;20636;-60
2022/10/21 02:03:34;;;;;;;3.10;2.45;;;;;;;19.13;54.45;100729.94;5125616;28;20024;-60
2022/10/21 02:05:59;;;;;;;2.70;2.50;;;;;;;19.08;54.78;100725.06;5135378;27;20072;-60
2022/10/21 02:08:24;;;;;;;3.03;2.72;;;;;;;19.15;54.55;100733.28;5145010;27;20035;-60
2022/10/21 02:10:57;;;;;;;3.15;2.53;;;;;;;19.14;54.53;100713.56;5144530;27;20023;-60
2022/10/21 02:13:25;;;;;;;3.05;2.60;;;;;;;19.08;54.42;100698.13;5146086;27;20094;-61
2022/10/21 02:15:54;;;;;;;2.88;2.58;;;;;;;19.11;54.52;100703.13;5146115;27;20121;-60
2022/10/21 02:18:22;;;;;;;2.78;2.30;;;;;;;19.02;54.75;100685.31;5144983;27;20138;-60
2022/10/21 02:20:51;;;;;;;2.63;2.38;;;;;;;19.13;54.79;100703.81;5145246;27;20019;-60
2022/10/21 02:23:19;;;;;;;3.33;2.83;;;;;;;19.12;54.46;100696.75;5134596;27;20089;-60
2022/10/21 02:25:46;;;;;;;2.50;2.30;;;;;;;19.13;54.78;100689.50;5125006;28;20096;-60
2022/10/21 02:28:12;;;;;;;3.55;2.60;;;;;;;19.12;54.45;100685.13;5123893;28;20077;-61
2022/10/21 02:30:44;;;;;;;2.63;2.42;;;;;;;19.11;54.70;100670.78;5124964;28;20023;-61
2022/10/21 02:33:17;;;;;;;3.17;2.15;;;;;;;19.12;54.32;100668.97;5125158;28;20172;-61
2022/10/21 02:35:57;;;;;;;3.17;2.72;;;;;;;19.11;54.49;100660.00;5123499;28;20028;-61
2022/10/21 02:38:26;;;;;;;2.80;2.60;;;;;;;19.11;54.33;100668.09;5125283;28;20034;-61
2022/10/21 02:40:55;;;;;;;2.55;2.35;;;;;;;19.11;54.82;100662.72;5123236;28;20518;-61
2022/10/21 02:43:32;;;;;;;2.40;2.20;;;;;;;19.11;54.36;100653.78;5125119;28;20024;-61
2022/10/21 02:45:59;;;;;;;3.17;2.33;;;;;;;19.10;54.78;100655.66;5123605;28;20031;-60
2022/10/21 02:48:25;;;;;;;3.03;2.72;;;;;;;19.09;54.63;100656.66;5123631;28;20031;-61
2022/10/21 02:50:50;;;;;;;3.45;3.15;;;;;;;19.10;54.38;100655.66;5124040;28;20015;-60
2022/10/21 02:53:15;;;;;;;2.78;2.35;;;;;;;18.98;54.71;100636.34;5134543;27;20050;-60
2022/10/21 02:55:41;;;;;;;2.50;2.30;;;;;;;19.09;54.38;100647.75;5129006;27;20031;-60
2022/10/21 02:58:06;;;;;;;3.08;2.70;;;;;;;18.95;54.48;100636.69;5124264;28;20055;-60
2022/10/21 03:00:31;;;;;;;3.67;2.67;;;;;;;19.07;54.72;100664.06;5124323;28;20520;-61
2022/10/21 03:02:56;;;;;;;3.05;2.75;;;;;;;19.06;54.75;100646.22;5124742;28;20031;-60
2022/10/21 03:05:22;;;;;;;2.95;2.60;;;;;;;19.08;54.98;100655.00;5130219;27;20027;-61
2022/10/21 03:07:47;;;;;;;2.70;2.40;;;;;;;19.08;54.38;100654.16;5144947;27;20095;-61
2022/10/21 03:10:12;;;;;;;3.50;2.60;;;;;;;19.08;54.46;100646.06;5144632;27;20023;-61
2022/10/21 03:12:38;;;;;;;2.38;2.17;;;;;;;18.99;54.57;100642.59;5144641;27;20038;-60
2022/10/21 03:15:03;;;;;;;2.55;2.22;;;;;;;19.00;54.54;100646.13;5145304;27;20027;-60
2022/10/21 03:17:29;;;;;;;3.08;2.60;;;;;;;19.07;54.56;100644.38;5145050;27;20391;-60
2022/10/21 03:19:54;;;;;;;2.70;2.40;;;;;;;19.06;54.53;100642.69;5144659;27;20023;-60
2022/10/21 03:22:19;;;;;;;2.38;2.17;;;;;;;19.05;54.34;100633.78;5140745;27;20024;-60
2022/10/21 03:24:44;;;;;;;2.50;2.30;;;;;;;19.06;54.79;100642.69;5124128;28;20613;-60
2022/10/21 03:27:10;;;;;;;3.20;2.50;;;;;;;19.05;54.51;100636.47;5123812;28;20119;-59
2022/10/21 03:29:35;;;;;;;2.70;2.50;;;;;;;19.05;54.66;100633.78;5124207;28;20034;-60
2022/10/21 03:32:00;;;;;;;2.70;2.42;;;;;;;18.96;54.60;100619.50;5123629;28;20043;-60
2022/10/21 03:34:25;;;;;;;2.42;2.17;;;;;;;19.04;54.51;100628.59;5124319;28;20053;-61
2022/10/21 03:36:51;;;;;;;3.33;3.03;;;;;;;19.03;54.62;100622.34;5123622;28;20035;-61
2022/10/21 03:39:16;;;;;;;2.75;2.55;;;;;;;19.01;54.47;100627.06;5124292;28;20101;-60
2022/10/21 03:41:41;;;;;;;3.17;2.50;;;;;;;19.01;54.63;100640.53;5123676;28;20051;-61
2022/10/21 03:44:06;;;;;;;3.20;2.65;;;;;;;19.02;54.50;100639.53;5124135;28;20019;-61
2022/10/21 03:46:31;;;;;;;2.90;2.50;;;;;;;18.99;54.32;100634.50;5123653;28;20027;-61
2022/10/21 03:48:57;;;;;;;2.70;2.40;;;;;;;18.95;54.71;100619.69;5124051;28;20034;-61
2022/10/21 03:51:22;;;;;;;3.20;2.67;;;;;;;19.01;54.76;100634.31;5123105;28;20048;-61
2022/10/21 03:53:47;;;;;;;2.95;2.53;;;;;;;19.01;54.39;100639.69;5142201;28;20031;-61
2022/10/21 03:56:13;;;;;;;2.58;2.38;;;;;;;18.87;54.62;100617.03;5144476;27;20780;-61
2022/10/21 03:58:39;;;;;;;2.63;2.38;;;;;;;19.00;54.74;100638.88;5144098;28;20174;-60
2022/10/21 04:01:04;;;;;;;2.60;2.40;;;;;;;19.01;54.73;100642.41;5144204;27;20501;-61
2022/10/21 04:03:29;;;;;;;2.92;2.60;;;;;;;19.00;54.83;100632.66;5142795;28;20015;-62
2022/10/21 04:05:55;;;;;;;3.65;2.60;;;;;;;18.98;54.80;100639.03;5133857;28;20057;-61
2022/10/21 04:08:20;;;;;;;3.20;2.60;;;;;;;18.94;54.58;100624.22;5145355;27;20031;-61
2022/10/21 04:10:46;;;;;;;2.83;2.50;;;;;;;18.97;54.53;100623.88;5148085;27;20023;-59
2022/10/21 04:13:11;;;;;;;3.35;2.55;;;;;;;18.96;54.93;100616.81;5148514;27;20031;-59
2022/10/21 04:15:37;;;;;;;3.08;2.78;;;;;;;18.97;54.91;100621.19;5148225;27;20031;-60
2022/10/21 04:18:02;;;;;;;2.60;2.40;;;;;;;18.97;54.48;100621.19;5148469;27;20492;-60
2022/10/21 04:20:27;;;;;;;2.60;2.40;;;;;;;18.85;54.69;100598.34;5128728;27;20035;-59
2022/10/21 04:22:52;;;;;;;5.22;2.60;;;;;;;18.88;54.65;100602.56;5127530;28;20690;-59
2022/10/21 04:25:18;;;;;;;2.97;2.58;;;;;;;18.96;54.64;100613.28;5127603;28;20046;-60
2022/10/21 04:27:43;;;;;;;2.95;2.65;;;;;;;18.96;54.74;100599.81;5126824;28;20049;-60
2022/10/21 04:30:09;;;;;;;2.78;2.40;;;;;;;18.95;54.36;100593.59;5127168;28;20038;-59
2022/10/21 04:32:34;;;;;;;2.83;2.47;;;;;;;18.95;54.70;100590.91;5126930;28;20513;-59
2022/10/21 04:34:59;;;;;;;2.95;2.65;;;;;;;18.81;54.46;100561.16;5126921;27;20027;-59
2022/10/21 04:37:24;;;;;;;2.83;2.53;;;;;;;18.94;54.69;100589.19;5133976;27;20049;-59
2022/10/21 04:39:50;;;;;;;2.67;2.47;;;;;;;18.94;54.83;100594.59;5147496;27;20624;-59
2022/10/21 04:42:15;;;;;;;3.10;2.80;;;;;;;18.93;54.83;100603.69;5147443;27;20345;-59
2022/10/21 04:44:40;;;;;;;2.95;2.75;;;;;;;18.94;54.71;100609.91;5147856;27;20027;-59
2022/10/21 04:47:06;;;;;;;2.60;2.40;;;;;;;18.93;54.72;100603.69;5147331;27;20026;-59
2022/10/21 04:49:31;;;;;;;2.72;2.40;;;;;;;18.94;54.37;100613.44;5147720;27;20049;-59
2022/10/21 04:51:57;;;;;;;2.60;2.38;;;;;;;18.94;54.52;100609.91;5146177;27;20076;-59
2022/10/21 04:54:22;;;;;;;2.60;2.40;;;;;;;18.94;54.55;100621.53;5146470;27;20030;-60
2022/10/21 04:56:47;;;;;;;3.08;2.30;;;;;;;18.94;54.54;100621.53;5147268;27;20025;-59
2022/10/21 04:59:13;;;;;;;2.35;2.15;;;;;;;18.93;54.76;100619.84;5146808;27;20511;-59
2022/10/21 05:01:38;;;;;;;2.60;2.33;;;;;;;18.87;54.69;100612.50;5146914;27;20027;-60
2022/10/21 05:04:03;;;;;;;3.58;2.65;;;;;;;18.94;54.87;100618.00;5141208;27;20084;-59
2022/10/21 05:06:28;;;;;;;3.00;2.72;;;;;;;18.94;54.52;100612.63;5119849;27;20043;-60
2022/10/21 05:08:54;;;;;;;2.90;2.60;;;;;;;18.92;54.57;100614.66;5147085;27;20043;-60
2022/10/21 05:11:19;;;;;;;3.10;2.50;;;;;;;18.93;54.67;100608.25;5146255;27;20030;-60
2022/10/21 05:13:44;;;;;;;4.38;2.55;;;;;;;18.92;55.11;100618.19;5137488;27;20041;-60
2022/10/21 05:16:10;;;;;;;3.60;2.70;;;;;;;18.92;54.99;100622.75;5124785;28;20028;-60
2022/10/21 05:18:35;;;;;;;3.45;2.63;;;;;;;18.93;54.67;100619.84;5126181;28;20034;-60
2022/10/21 05:21:00;;;;;;;2.53;2.25;;;;;;;18.81;55.06;100597.00;5124367;27;20023;-60
2022/10/21 05:23:26;;;;;;;3.03;2.45;;;;;;;18.90;54.93;100612.16;5133958;27;20126;-60
2022/10/21 05:25:51;;;;;;;2.70;2.40;;;;;;;18.93;55.02;100619.84;5125960;28;20037;-61
2022/10/21 05:28:19;;;;;;;3.50;2.40;;;;;;;18.91;55.03;100621.91;5126194;27;20019;-60
2022/10/21 05:30:44;;;;;;;2.75;2.55;;;;;;;18.93;54.88;100621.72;5128651;27;20079;-60
2022/10/21 05:33:10;;;;;;;4.72;2.95;;;;;;;18.93;55.00;100616.31;5126031;28;20031;-60
2022/10/21 05:35:35;;;;;;;4.03;2.65;;;;;;;18.93;55.01;100616.31;5125512;27;20084;-60
2022/10/21 05:38:00;;;;;;;2.80;2.50;;;;;;;18.90;55.05;100609.47;5125996;28;20620;-60
2022/10/21 05:40:26;;;;;;;2.97;2.45;;;;;;;18.74;55.23;100577.22;5125522;28;20055;-60
2022/10/21 05:42:51;;;;;;;3.05;2.58;;;;;;;18.93;55.20;100609.09;5125988;28;20027;-61
2022/10/21 05:45:16;;;;;;;2.50;2.30;;;;;;;18.93;54.91;100610.94;5126190;27;20053;-60
2022/10/21 05:47:42;;;;;;;3.00;2.70;;;;;;;18.94;55.01;100609.91;5130872;27;20099;-61
2022/10/21 05:50:09;;;;;;;2.85;2.47;;;;;;;18.88;55.52;100608.78;5136900;27;20090;-60
2022/10/21 05:52:34;;;;;;;2.97;2.58;;;;;;;18.93;55.64;100609.09;5134278;27;20028;-61
2022/10/21 05:55:00;;;;;;;3.22;2.92;;;;;;;18.67;55.43;100571.63;5136259;27;20074;-61
2022/10/21 05:57:25;;;;;;;2.50;2.30;;;;;;;18.90;55.39;100606.75;5135147;27;20427;-61
2022/10/21 05:59:50;;;;;;;2.80;2.60;;;;;;;18.93;55.53;100613.63;5134010;27;20067;-59
2022/10/21 06:02:16;;;;;;;2.88;2.55;;;;;;;18.93;55.44;100621.72;5131958;27;20034;-61
2022/10/21 06:04:41;;;;;;;3.65;2.60;;;;;;;18.88;55.53;100608.78;5134822;27;20019;-62
2022/10/21 06:07:06;;;;;;;2.75;2.50;;;;;;;18.89;55.39;100607.75;5136582;27;20121;-61
2022/10/21 06:09:32;;;;;;;3.05;2.40;;;;;;;18.92;55.41;100610.09;5134424;27;20023;-61
2022/10/21 06:11:57;;;;;;;3.50;2.15;;;;;;;18.92;55.10;100611.97;5135437;27;20036;-61
2022/10/21 06:14:23;;;;;;;3.22;2.40;;;;;;;18.92;55.54;100612.81;5133521;27;20083;-61
2022/10/21 06:16:49;;;;;;;2.95;2.50;;;;;;;18.83;55.51;100595.00;5135945;27;20122;-61
2022/10/21 06:19:14;;;;;;;3.45;2.83;;;;;;;18.93;55.25;100621.72;5133379;27;20034;-62
2022/10/21 06:21:39;;;;;;;3.78;2.33;;;;;;;18.93;55.66;100613.63;5134909;27;20030;-61
2022/10/21 06:24:04;;;;;;;3.08;2.78;;;;;;;18.91;55.23;100602.22;5133584;27;20115;-61
2022/10/21 06:26:30;;;;;;;2.65;2.40;;;;;;;18.92;55.24;100604.72;5124934;28;20024;-61
2022/10/21 06:28:56;;;;;;;2.50;2.30;;;;;;;18.92;55.68;100606.56;5125017;28;20095;-61
2022/10/21 06:31:21;;;;;;;2.67;2.45;;;;;;;18.91;55.42;100607.59;5124573;27;20027;-61
2022/10/21 06:33:46;;;;;;;3.45;2.75;;;;;;;18.92;55.48;100609.28;5124773;28;20019;-62
2022/10/21 06:36:12;;;;;;;4.43;2.85;;;;;;;18.91;55.51;100605.75;5124108;28;20102;-61
2022/10/21 06:38:37;;;;;;;3.33;2.53;;;;;;;18.92;55.55;100606.56;5124995;28;20035;-61
2022/10/21 06:41:09;;;;;;;2.88;2.67;;;;;;;18.91;55.39;100596.81;5124148;28;20023;-61
2022/10/21 06:43:34;;;;;;;2.88;2.33;;;;;;;18.92;55.28;100595.81;5123529;28;20046;-61
2022/10/21 06:46:02;;;;;;;2.45;2.20;;;;;;;18.90;55.36;100598.69;5124729;28;20020;-61
2022/10/21 06:48:27;;;;;;;2.83;2.30;;;;;;;18.92;55.31;100598.50;5124517;28;20023;-61
2022/10/21 06:51:14;;;;;;;3.00;2.40;;;;;;;18.91;55.41;100597.66;5123568;28;20047;-61
2022/10/21 06:53:39;;;;;;;3.80;2.63;;;;;;;18.71;55.34;100564.91;5124386;28;20020;-62
2022/10/21 06:56:08;;;;;;;3.60;2.33;;;;;;;18.91;55.33;100596.81;5124295;28;20115;-61
2022/10/21 06:58:34;;;;;;;;;;;;;;;18.91;55.30;100602.22;5123248;28;20039;-62
2022/10/21 07:01:06;;;;;;;2.90;2.60;;;;;;;18.92;55.25;100614.66;5123826;28;19921;-61
2022/10/21 07:03:31;;;;;;;2.70;2.45;;;;;;;18.91;55.38;100613.00;5126648;27;20134;-61
2022/10/21 07:05:58;;;;;;;3.60;2.67;;;;;;;18.88;55.61;100607.94;5144029;27;20027;-61
2022/10/21 07:08:24;;;;;;;3.63;2.70;;;;;;;18.90;55.45;100605.91;5144968;27;20067;-61
2022/10/21 07:10:49;;;;;;;3.38;2.67;;;;;;;18.90;55.38;100614.84;5144350;27;20437;-62
2022/10/21 07:13:14;;;;;;;4.57;2.53;;;;;;;18.89;55.58;100615.84;5141858;27;20049;-61
2022/10/21 07:15:40;;;;;;;2.60;2.22;;;;;;;18.91;55.20;100621.06;5143081;27;20676;-61
2022/10/21 07:18:05;;;;;;;3.92;2.40;;;;;;;18.66;55.69;100578.03;5144841;27;20030;-61
2022/10/21 07:20:32;;;;;;;2.80;2.30;;;;;;;18.93;55.29;100619.84;5142806;27;20031;-61
2022/10/21 07:22:57;;;;;;;3.90;2.40;;;;;;;18.94;55.29;100623.38;5144929;27;20027;-61
2022/10/21 07:25:23;;;;;;;5.07;2.53;;;;;;;18.94;55.38;100626.09;5144850;27;20030;-62
2022/10/21 07:27:48;;;;;;;4.45;2.83;;;;;;;18.89;55.35;100613.13;5144110;27;20032;-62
2022/10/21 07:30:13;;;;;;;3.75;2.60;;;;;;;18.91;55.42;100621.91;5144104;27;20440;-60
2022/10/21 07:32:39;;;;;;;3.03;2.65;;;;;;;19.00;55.54;100635.34;5139258;27;20545;-61
2022/10/21 07:35:04;;;;;;;3.42;2.80;;;;;;;19.01;55.16;100629.75;5123519;28;20023;-60
2022/10/21 07:37:30;;;;;;;4.07;2.50;;;;;;;19.00;55.19;100630.78;5123355;28;20031;-61
2022/10/21 07:39:55;;;;;;;3.33;2.38;;;;;;;19.05;55.56;100631.09;5123408;28;20137;-61
2022/10/21 07:42:21;;;;;;;3.10;2.58;;;;;;;19.06;55.52;100635.47;5123427;28;20023;-61
2022/10/21 07:44:49;;;;;;;2.92;2.63;;;;;;;19.07;55.68;100630.91;5127080;28;20028;-60
2022/10/21 07:47:14;;;;;;;2.90;2.60;;;;;;;19.09;55.39;100645.06;5127875;28;20023;-60
2022/10/21 07:49:39;;;;;;;3.00;2.70;;;;;;;19.10;55.58;100649.41;5127211;28;20291;-60
2022/10/21 07:52:05;;;;;;;3.28;2.60;;;;;;;19.11;55.32;100651.09;5125984;28;20023;-60
2022/10/21 07:54:30;;;;;;;3.42;3.00;;;;;;;19.08;55.20;100641.53;5127811;28;20468;-60
2022/10/21 07:56:55;;;;;;;2.83;2.40;;;;;;;19.13;55.37;100646.38;5126351;28;20028;-61
2022/10/21 07:59:21;;;;;;;2.83;2.45;;;;;;;19.14;55.60;100653.44;5127526;28;20053;-61
2022/10/21 08:01:47;;;;;;;2.75;2.47;;;;;;;19.09;55.32;100642.38;5127276;28;20110;-61
2022/10/21 08:04:15;;;;;;;3.95;3.20;;;;;;;19.14;55.56;100654.28;5127345;28;20616;-61
2022/10/21 08:06:41;;;;;;;3.30;3.00;;;;;;;19.11;55.52;100646.53;5144317;27;20023;-61
2022/10/21 08:09:06;;;;;;;3.25;2.95;;;;;;;19.15;55.30;100652.41;5148263;27;20031;-61
2022/10/21 08:11:32;;;;;;;4.47;2.85;;;;;;;19.19;55.37;100665.38;5147613;27;20026;-62
2022/10/21 08:13:58;;;;;;;4.18;3.10;;;;;;;19.20;55.26;100650.91;5148035;27;20055;-61
2022/10/21 08:16:24;;;;;;;5.07;3.30;;;;;;;19.22;55.14;100653.41;5147990;27;20023;-61
2022/10/21 08:18:49;;;;;;;4.05;2.80;;;;;;;19.23;55.09;100649.69;5147896;27;20027;-61
2022/10/21 08:21:15;;;;;;;3.58;2.85;;;;;;;19.23;55.37;100650.53;5146635;27;20034;-61
2022/10/21 08:23:40;;;;;;;4.28;2.92;;;;;;;19.25;55.15;100639.59;5148061;27;20023;-67
2022/10/21 08:26:09;;;;;;;7.55;3.38;;;;;;;19.27;55.40;100647.47;5147516;27;20079;-59
2022/10/21 08:28:34;;;;;;;;;;;;;;;19.28;55.44;100647.28;5146483;27;20118;-58
2022/10/21 08:31:08;;;;;;;5.20;2.95;;;;;;;19.30;55.19;100649.84;5144925;27;19907;-55
2022/10/21 08:33:34;;;;;;;3.88;3.10;;;;;;;19.29;55.58;100632.81;5126670;28;20024;-52
2022/10/21 08:36:08;;;;;;;4.15;3.10;;;;;;;19.32;55.37;100637.84;5126252;28;20058;-54
2022/10/21 08:38:33;;;;;;;4.72;3.10;;;;;;;19.32;55.48;100637.00;5126892;28;20023;-54
2022/10/21 08:41:00;;;;;;;4.20;2.88;;;;;;;19.39;55.31;100656.84;5126135;28;20058;-53
2022/10/21 08:43:32;;;;;;;5.10;2.67;;;;;;;19.41;55.12;100646.72;5125569;28;20072;-51
2022/10/21 08:46:10;;;;;;;5.00;2.75;;;;;;;19.45;55.24;100639.94;5125626;28;20028;-51
2022/10/21 08:48:43;;;;;;;3.25;2.95;;;;;;;19.47;55.40;100641.47;5121499;27;20039;-55
2022/10/21 08:51:15;;;;;;;3.17;2.50;;;;;;;19.41;55.36;100628.69;5127777;27;20015;-51
2022/10/21 08:53:45;;;;;;;4.22;3.20;;;;;;;19.52;55.43;100645.47;5129288;27;20031;-51
2022/10/21 08:56:12;;;;;;;3.20;2.72;;;;;;;19.51;55.08;100638.41;5129091;27;20068;-53
2022/10/21 08:58:38;;;;;;;3.08;2.63;;;;;;;19.56;55.17;100649.50;5131597;27;20065;-52
2022/10/21 09:01:20;;;;;;;5.38;3.08;;;;;;;19.57;55.20;100645.78;5133380;27;20031;-53
2022/10/21 09:03:53;;;;;;;7.32;2.92;;;;;;;19.51;55.11;100630.31;5137423;27;20019;-52
2022/10/21 09:06:21;;;;;;;5.00;2.80;;;;;;;19.58;55.55;100637.53;5133331;27;20027;-56
2022/10/21 09:09:06;;;;;;;5.68;3.28;;;;;;;19.58;55.49;100642.03;5145462;27;20051;-54
2022/10/21 09:11:58;;;;;;;4.68;3.35;;;;;;;19.59;55.60;100641.06;5130791;27;20030;-59
2022/10/21 09:14:37;;;;;;;6.43;2.95;;;;;;;19.58;55.90;100650.13;5135822;27;20053;-53
2022/10/21 09:17:40;;;;;;;4.63;3.08;;;;;;;19.58;55.84;100645.59;5137141;27;20027;-57
2022/10/21 09:20:20;;;;;;;4.63;2.88;;;;;;;19.57;55.67;100640.38;5128622;27;20492;-57
2022/10/21 09:23:04;;;;;;;4.75;3.60;;;;;;;19.55;55.77;100648.66;5137173;27;20041;-55
2022/10/21 09:25:33;;;;;;;5.28;2.75;;;;;;;19.53;55.74;100645.28;5124408;28;20095;-55
2022/10/21 09:27:59;;;;;;;;;;;;;;;19.53;55.86;100650.69;5141759;27;20026;-51
2022/10/21 09:30:25;;;;;;;3.40;2.67;;;;;;;19.53;55.80;100647.97;5081238;28;19970;-51
2022/10/21 09:32:55;;;;;;;3.90;3.00;;;;;;;19.53;56.06;100641.75;5064662;28;20025;-55
2022/10/21 09:35:44;;;;;;;3.70;2.80;;;;;;;19.51;56.17;100649.19;5063245;28;20378;-55
2022/10/21 09:38:19;;;;;;;5.38;2.83;;;;;;;19.51;56.19;100657.28;5060831;28;20089;-58
2022/10/21 09:40:46;;;;;;;4.28;2.95;;;;;;;19.47;55.89;100657.63;5046361;28;20444;-55
2022/10/21 09:43:17;;;;;;;3.70;2.70;;;;;;;19.49;56.30;100666.38;5055650;28;20027;-56
2022/10/21 09:45:46;;;;;;;4.95;3.10;;;;;;;19.51;55.82;100671.59;5063360;28;20024;-58
2022/10/21 09:48:21;;;;;;;4.28;2.85;;;;;;;19.50;56.02;100669.94;5048536;28;20021;-56
2022/10/21 09:50:53;;;;;;;4.13;2.60;;;;;;;19.51;55.90;100668.06;5061070;28;20032;-54
2022/10/21 09:53:21;;;;;;;4.28;2.83;;;;;;;19.51;56.19;100668.06;5063513;28;20024;-59
2022/10/21 09:55:51;;;;;;;3.92;2.65;;;;;;;19.43;56.22;100656.31;5046928;28;20103;-59
2022/10/21 09:58:35;;;;;;;4.25;3.08;;;;;;;19.44;55.89;100665.22;5046352;28;20045;-50
2022/10/21 10:01:00;;;;;;;3.42;3.10;;;;;;;19.40;56.30;100662.06;5063925;28;20105;-52
2022/10/21 10:03:44;;;;;;;4.20;2.65;;;;;;;19.51;56.16;100695.88;5064274;28;20021;-51
2022/10/21 10:06:10;;;;;;;3.63;2.80;;;;;;;19.51;56.29;100693.19;5052473;28;20074;-51
2022/10/21 10:08:40;;;;;;;3.88;2.38;;;;;;;19.52;55.88;100688.63;5064600;28;20040;-50
2022/10/21 10:11:08;;;;;;;2.88;2.58;;;;;;;19.52;56.08;100675.97;5052677;28;20022;-52
2022/10/21 10:13:51;;;;;;;3.10;2.58;;;;;;;19.53;55.94;100682.19;5059711;28;20564;-46
2022/10/21 10:16:23;;;;;;;3.83;2.75;;;;;;;19.54;55.73;100684.75;5048648;28;20561;-51
2022/10/21 10:18:50;;;;;;;3.28;2.60;;;;;;;19.43;55.89;100664.41;5070909;28;20026;-50
2022/10/21 10:21:20;;;;;;;4.30;3.00;;;;;;;19.56;56.08;100685.38;5055740;28;20116;-51
2022/10/21 10:23:50;;;;;;;3.55;2.50;;;;;;;19.58;56.03;100680.66;5047708;28;20025;-52
2022/10/21 10:26:18;;;;;;;5.03;2.25;;;;;;;19.59;55.89;100685.03;5063468;28;20025;-52
2022/10/21 10:28:48;;;;;;;4.40;2.90;;;;;;;19.53;55.98;100660.63;5063614;28;20032;-51
2022/10/21 10:31:22;;;;;;;5.00;2.60;;;;;;;19.64;55.88;100681.84;5063405;28;20552;-49
2022/10/21 10:33:53;;;;;;;3.42;2.35;;;;;;;19.65;55.90;100683.50;5062749;28;20021;-53
2022/10/21 10:36:25;;;;;;;4.25;2.63;;;;;;;19.65;56.06;100675.41;5061764;28;20028;-56
2022/10/21 10:38:52;;;;;;;5.63;2.83;;;;;;;19.66;56.08;100683.31;5062894;28;20032;-53
2022/10/21 10:41:18;;;;;;;3.53;2.40;;;;;;;19.61;56.24;100668.69;5063120;28;20028;-53
2022/10/21 10:43:46;;;;;;;4.18;2.70;;;;;;;19.59;56.21;100654.53;5063429;28;20052;-54
2022/10/21 10:46:28;;;;;;;3.50;2.60;;;;;;;19.67;56.39;100663.44;5043087;28;20044;-54
2022/10/21 10:48:54;;;;;;;3.58;2.47;;;;;;;19.68;56.16;100675.91;5044006;28;20025;-52
2022/10/21 10:51:28;;;;;;;6.10;2.67;;;;;;;19.68;56.49;100684.00;5055403;28;20554;-55
2022/10/21 10:54:02;;;;;;;4.00;3.17;;;;;;;19.69;56.21;100687.53;5062645;28;20017;-53
2022/10/21 10:56:45;;;;;;;3.70;2.38;;;;;;;19.70;56.61;100691.91;5043335;28;20116;-54
2022/10/21 10:59:30;;;;;;;4.18;2.70;;;;;;;19.69;56.40;100690.22;5055127;28;20061;-57
2022/10/21 11:02:08;;;;;;;5.10;2.65;;;;;;;19.68;56.43;100692.09;5062386;28;20048;-57
2022/10/21 11:04:52;;;;;;;4.00;2.53;;;;;;;19.69;56.56;100690.22;5062909;28;20039;-58
2022/10/21 11:07:23;;;;;;;4.82;2.72;;;;;;;19.71;56.42;100690.91;5062792;28;20085;-55
2022/10/21 11:09:50;;;;;;;4.05;2.30;;;;;;;19.68;56.78;100678.59;5063183;28;20028;-59
2022/10/21 11:12:21;;;;;;;5.03;2.30;;;;;;;19.70;56.77;100690.03;5058524;28;20026;-53
2022/10/21 11:14:52;;;;;;;3.28;2.40;;;;;;;19.70;56.74;100695.44;5051003;28;20093;-50
2022/10/21 11:17:28;;;;;;;5.20;2.65;;;;;;;19.70;56.53;100695.44;5056147;28;20056;-48
2022/10/21 11:20:33;;;;;;;3.33;2.10;;;;;;;19.68;56.42;100686.69;5044568;28;20025;-57
2022/10/21 11:23:13;;;;;;;3.63;2.30;;;;;;;19.70;56.62;100694.59;5058469;28;20021;-48
2022/10/21 11:25:41;;;;;;;3.45;2.30;;;;;;;19.71;56.53;100690.91;5046242;28;20025;-54
2022/10/21 11:28:40;;;;;;;4.38;2.47;;;;;;;19.71;56.52;100696.28;5062104;28;20060;-55
2022/10/21 11:31:08;;;;;;;3.50;2.30;;;;;;;19.73;56.50;100678.91;5048952;28;20033;-50
2022/10/21 11:33:48;;;;;;;4.70;2.63;;;;;;;19.72;56.78;100676.38;5057993;28;20025;-49
2022/10/21 11:36:35;;;;;;;2.95;2.10;;;;;;;19.78;56.62;100681.03;5060317;28;20033;-46